createdAt,value
2023-05-14T00:04:23.987Z,101117.52
2023-05-14T00:09:27.347Z,101116.55
2023-05-14T00:14:30.861Z,101115.96
2023-05-14T00:19:33.984Z,101121.64
2023-05-14T00:24:37.390Z,101125.31
2023-05-14T00:29:40.586Z,101121.77
2023-05-14T00:34:43.700Z,101124.52
2023-05-14T00:39:46.914Z,101126.07
2023-05-14T00:44:49.803Z,101124.44
2023-05-14T00:49:53.421Z,101123.24
2023-05-14T00:54:57.142Z,101118.80
2023-05-14T01:00:00.237Z,101117.07
2023-05-14T01:05:04.071Z,101110.02
2023-05-14T01:10:26.544Z,101107.47
2023-05-14T01:15:32.218Z,101110.45
2023-05-14T01:20:35.193Z,101105.06
2023-05-14T01:25:38.405Z,101103.56
2023-05-14T01:30:45.814Z,101100.89
2023-05-14T01:35:50.053Z,101097.95
2023-05-14T01:40:53.757Z,101098.02
2023-05-14T01:45:56.850Z,101102.61
2023-05-14T01:50:59.967Z,101102.84
2023-05-14T01:56:03.071Z,101098.45
2023-05-14T02:01:06.344Z,101098.80
2023-05-14T02:06:09.490Z,101103.95
2023-05-14T02:11:12.901Z,101099.80
2023-05-14T02:16:16.130Z,101099.35
2023-05-14T02:21:19.231Z,101095.39
2023-05-14T02:26:22.525Z,101096.34
2023-05-14T02:31:25.816Z,101097.34
2023-05-14T02:36:29.151Z,101099.16
2023-05-14T02:41:32.264Z,101100.65
2023-05-14T02:46:35.404Z,101100.13
2023-05-14T02:51:38.575Z,101094.73
2023-05-14T02:56:41.572Z,101093.61
2023-05-14T03:01:44.601Z,101091.80
2023-05-14T03:06:48.304Z,101087.23
2023-05-14T03:11:51.704Z,101086.14
2023-05-14T03:16:54.764Z,101084.48
2023-05-14T03:21:58.025Z,101081.40
2023-05-14T03:27:01.019Z,101082.46
2023-05-14T03:32:04.232Z,101083.23
2023-05-14T03:37:07.236Z,101078.05
2023-05-14T03:42:10.252Z,101071.42
2023-05-14T03:47:13.353Z,101067.56
2023-05-14T03:52:16.452Z,101070.88
2023-05-14T03:57:19.452Z,101071.09
2023-05-14T04:02:22.506Z,101072.02
2023-05-14T04:07:25.873Z,101072.25
2023-05-14T04:12:28.971Z,101069.39
2023-05-14T04:17:32.995Z,101071.39
2023-05-14T04:22:37.032Z,101064.38
2023-05-14T04:27:40.352Z,101066.92
2023-05-14T04:32:43.352Z,101066.34
2023-05-14T04:37:46.449Z,101069.98
2023-05-14T04:42:49.552Z,101067.89
2023-05-14T04:47:52.628Z,101063.59
2023-05-14T04:52:56.110Z,101054.95
2023-05-14T04:57:59.273Z,101051.46
2023-05-14T05:03:02.437Z,101046.84
2023-05-14T05:08:05.698Z,101054.48
2023-05-14T05:13:08.903Z,101050.23
2023-05-14T05:18:12.012Z,101041.27
2023-05-14T05:23:15.498Z,101046.65
2023-05-14T05:28:19.153Z,101050.02
2023-05-14T05:33:22.251Z,101049.92
2023-05-14T05:38:25.355Z,101042.51
2023-05-14T05:43:30.924Z,101045.69
2023-05-14T05:48:33.900Z,101047.33
2023-05-14T05:53:36.920Z,101043.02
2023-05-14T05:58:40.148Z,101045.14
2023-05-14T06:03:43.140Z,101045.60
2023-05-14T06:08:46.345Z,101044.32
2023-05-14T06:13:49.454Z,101039.60
2023-05-14T06:18:56.193Z,101040.74
2023-05-14T06:23:59.247Z,101046.42
2023-05-14T06:29:02.353Z,101038.70
2023-05-14T06:34:05.279Z,101035.69
2023-05-14T06:39:08.255Z,101039.27
2023-05-14T06:44:11.259Z,101033.73
2023-05-14T06:49:14.467Z,101031.70
2023-05-14T06:54:17.670Z,101034.00
2023-05-14T06:59:20.799Z,101028.70
2023-05-14T07:04:23.958Z,101022.92
2023-05-14T07:09:27.399Z,101022.55
2023-05-14T07:14:30.606Z,101022.79
2023-05-14T07:19:33.727Z,101017.00
2023-05-14T07:24:36.714Z,101017.09
2023-05-14T07:29:39.652Z,101014.99
2023-05-14T07:34:43.043Z,101012.55
2023-05-14T07:39:46.044Z,101005.23
2023-05-14T07:44:49.034Z,100998.85
2023-05-14T07:49:55.541Z,100997.73
2023-05-14T07:54:58.525Z,100992.54
2023-05-14T08:00:01.836Z,100987.34
2023-05-14T08:05:07.089Z,100981.02
2023-05-14T08:10:11.217Z,100981.15
2023-05-14T08:15:14.230Z,100976.17
2023-05-14T08:20:17.437Z,100973.83
2023-05-14T08:25:20.969Z,100968.65
2023-05-14T08:30:24.558Z,100966.24
2023-05-14T08:35:28.403Z,100963.59
2023-05-14T08:40:31.700Z,100962.70
2023-05-14T08:45:35.535Z,100959.73
2023-05-14T08:50:39.037Z,100953.59
2023-05-14T08:55:43.612Z,100947.97
2023-05-14T09:00:47.399Z,100941.08
2023-05-14T09:05:51.871Z,100937.03
2023-05-14T09:10:54.854Z,100939.20
2023-05-14T09:15:58.978Z,100930.89
2023-05-14T09:21:02.178Z,100926.52
2023-05-14T09:26:06.557Z,100916.34
2023-05-14T09:31:10.055Z,100917.19
2023-05-14T09:36:13.558Z,100913.64
2023-05-14T09:41:17.272Z,100912.42
2023-05-14T09:46:20.375Z,100902.64
2023-05-14T09:51:24.013Z,100896.85
2023-05-14T09:56:27.521Z,100883.30
2023-05-14T10:01:31.363Z,100881.86
2023-05-14T10:06:37.303Z,100873.87
2023-05-14T10:11:44.206Z,100874.80
2023-05-14T10:16:51.855Z,100863.27
2023-05-14T10:22:04.392Z,100848.10
2023-05-14T10:27:07.751Z,100847.83
2023-05-14T10:32:13.315Z,100843.33
2023-05-14T10:37:18.469Z,100832.52
2023-05-14T10:42:22.506Z,100828.88
2023-05-14T10:47:29.298Z,100821.13
2023-05-14T10:52:32.701Z,100814.88
2023-05-14T10:57:40.103Z,100809.63
2023-05-14T11:02:44.647Z,100801.15
2023-05-14T11:07:49.019Z,100791.05
2023-05-14T11:12:52.947Z,100786.55
2023-05-14T11:17:56.160Z,100781.54
2023-05-14T11:22:59.418Z,100778.66
2023-05-14T11:28:02.631Z,100769.35
2023-05-14T11:33:06.016Z,100770.83
2023-05-14T11:38:14.067Z,100760.10
2023-05-14T11:43:17.071Z,100754.82
2023-05-14T11:48:20.707Z,100756.98
2023-05-14T11:53:28.303Z,100752.33
2023-05-14T11:58:34.788Z,100750.84
2023-05-14T12:03:38.072Z,100742.66
2023-05-14T12:08:41.403Z,100741.23
2023-05-14T12:13:44.322Z,100735.31
2023-05-14T12:18:47.423Z,100726.96
2023-05-14T12:23:57.081Z,100722.27
2023-05-14T12:29:01.332Z,100714.16
2023-05-14T12:34:04.606Z,100706.23
2023-05-14T12:39:08.031Z,100700.35
2023-05-14T12:44:11.032Z,100696.37
2023-05-14T12:49:14.151Z,100685.82
2023-05-14T12:54:17.237Z,100681.33
2023-05-14T12:59:20.260Z,100685.73
2023-05-14T13:04:23.888Z,100688.68
2023-05-14T13:09:28.510Z,100678.44
2023-05-14T13:14:31.822Z,100669.14
2023-05-14T13:19:35.530Z,100658.01
2023-05-14T13:24:39.200Z,100652.59
2023-05-14T13:29:42.663Z,100642.55
2023-05-14T13:34:45.779Z,100633.34
2023-05-14T13:39:50.022Z,100624.49
2023-05-14T13:44:54.438Z,100624.27
2023-05-14T13:49:57.456Z,100623.21
2023-05-14T13:55:00.676Z,100612.98
2023-05-14T14:00:05.545Z,100608.46
2023-05-14T14:05:12.243Z,100603.02
2023-05-14T14:10:17.058Z,100597.33
2023-05-14T14:15:23.491Z,100591.09
2023-05-14T14:20:27.457Z,100584.73
2023-05-14T14:25:31.207Z,100572.09
2023-05-14T14:30:34.997Z,100562.33
2023-05-14T14:35:38.979Z,100558.53
2023-05-14T14:40:42.023Z,100555.71
2023-05-14T14:45:48.238Z,100548.43
2023-05-14T14:50:52.850Z,100547.83
2023-05-14T14:55:56.488Z,100541.64
2023-05-14T15:01:01.462Z,100538.70
2023-05-14T15:06:06.691Z,100533.40
2023-05-14T15:11:09.792Z,100527.36
2023-05-14T15:16:14.340Z,100520.21
2023-05-14T15:21:17.823Z,100515.11
2023-05-14T15:26:22.167Z,100509.16
2023-05-14T15:31:26.336Z,100505.42
2023-05-14T15:36:29.625Z,100498.89
2023-05-14T15:41:34.658Z,100501.76
2023-05-14T15:46:38.335Z,100507.13
2023-05-14T15:51:41.587Z,100506.55
2023-05-14T15:56:44.906Z,100499.48
2023-05-14T16:01:48.706Z,100493.55
2023-05-14T16:06:51.932Z,100486.41
2023-05-14T16:11:55.136Z,100486.48
2023-05-14T16:16:58.525Z,100484.94
2023-05-14T16:22:01.755Z,100483.12
2023-05-14T16:27:06.125Z,100470.56
2023-05-14T16:32:09.490Z,100472.91
2023-05-14T16:37:13.203Z,100470.42
2023-05-14T16:42:17.036Z,100466.06
2023-05-14T16:47:20.889Z,100456.64
2023-05-14T16:52:24.523Z,100456.23
2023-05-14T16:57:28.099Z,100455.74
2023-05-14T17:02:31.482Z,100454.35
2023-05-14T17:07:35.125Z,100453.98
2023-05-14T17:12:38.537Z,100453.79
2023-05-14T17:17:40.428Z,100454.29
2023-05-14T17:22:44.419Z,100449.73
2023-05-14T17:27:48.275Z,100446.32
2023-05-14T17:32:54.027Z,100446.38
2023-05-14T17:37:59.922Z,100450.67
2023-05-14T17:43:07.197Z,100449.74
2023-05-14T17:48:11.208Z,100448.17
2023-05-14T17:53:14.549Z,100449.43
2023-05-14T17:58:17.863Z,100449.45
2023-05-14T18:03:21.638Z,100446.67
2023-05-14T18:08:25.308Z,100448.52
2023-05-14T18:13:29.653Z,100451.98
2023-05-14T18:18:33.492Z,100451.64
2023-05-14T18:23:36.780Z,100453.88
2023-05-14T18:28:40.401Z,100452.02
2023-05-14T18:33:43.911Z,100455.59
2023-05-14T18:38:47.426Z,100458.08
2023-05-14T18:43:50.462Z,100456.08
2023-05-14T18:48:53.868Z,100455.70
2023-05-14T18:53:57.057Z,100455.99
2023-05-14T18:59:00.166Z,100457.48
2023-05-14T19:04:05.468Z,100462.08
2023-05-14T19:09:09.559Z,100462.52
2023-05-14T19:14:12.552Z,100459.38
2023-05-14T19:19:15.963Z,100462.77
2023-05-14T19:24:19.375Z,100459.80
2023-05-14T19:29:22.424Z,100458.08
2023-05-14T19:34:28.158Z,100455.14
2023-05-14T19:39:31.863Z,100454.27
2023-05-14T19:44:35.278Z,100456.09
2023-05-14T19:49:38.382Z,100454.71
2023-05-14T19:54:41.395Z,100448.30
2023-05-14T19:59:46.227Z,100444.52
2023-05-14T20:04:49.848Z,100444.58
2023-05-14T20:09:53.570Z,100444.35
2023-05-14T20:14:56.569Z,100439.04
2023-05-14T20:19:59.679Z,100436.39
2023-05-14T20:25:03.204Z,100436.00
2023-05-14T20:30:07.014Z,100434.98
2023-05-14T20:35:10.600Z,100432.20
2023-05-14T20:40:13.883Z,100427.80
2023-05-14T20:45:17.866Z,100431.45
2023-05-14T20:50:22.857Z,100432.59
2023-05-14T20:55:28.504Z,100431.71
2023-05-14T21:00:32.335Z,100426.09
2023-05-14T21:05:35.621Z,100424.48
2023-05-14T21:10:38.929Z,100413.14
2023-05-14T21:15:42.131Z,100406.94
2023-05-14T21:20:45.138Z,100409.11
2023-05-14T21:25:48.244Z,100407.73
2023-05-14T21:30:53.196Z,100401.61
2023-05-14T21:35:56.501Z,100397.18
2023-05-14T21:41:00.033Z,100395.79
2023-05-14T21:46:03.020Z,100391.36
2023-05-14T21:51:06.854Z,100392.15
2023-05-14T21:56:10.251Z,100388.27
2023-05-14T22:01:13.299Z,100384.45
2023-05-14T22:06:16.465Z,100380.48
2023-05-14T22:11:20.199Z,100376.63
2023-05-14T22:16:23.633Z,100368.78
2023-05-14T22:21:26.718Z,100366.29
2023-05-14T22:26:29.813Z,100366.89
2023-05-14T22:31:32.741Z,100362.62
2023-05-14T22:36:35.818Z,100358.20
2023-05-14T22:41:38.817Z,100351.80
2023-05-14T22:46:41.844Z,100347.44
2023-05-14T22:51:45.030Z,100344.41
2023-05-14T22:56:48.160Z,100340.84
2023-05-14T23:01:51.383Z,100333.66
2023-05-14T23:06:54.552Z,100323.69
2023-05-14T23:11:57.665Z,100321.52
2023-05-14T23:17:00.762Z,100317.05
2023-05-14T23:22:03.767Z,100315.44
2023-05-14T23:27:08.414Z,100310.09
2023-05-14T23:32:11.335Z,100296.66
2023-05-14T23:37:14.316Z,100289.20
2023-05-14T23:42:17.415Z,100279.23
2023-05-14T23:47:20.707Z,100273.98
2023-05-14T23:52:23.838Z,100267.95
2023-05-14T23:57:27.468Z,100260.16
